sensor_id;sensor_type;location;lat;lon;timestamp;P1;durP1;ratioP1;P2;durP2;ratioP2
76667;SDS011;65585;51.166;16.922;2024-02-23T00:00:08;4.03;;;3.10;;
76667;SDS011;65585;51.166;16.922;2024-02-23T00:02:56;3.67;;;2.90;;
76667;SDS011;65585;51.166;16.922;2024-02-23T00:05:23;4.10;;;2.75;;
76667;SDS011;65585;51.166;16.922;2024-02-23T00:07:49;4.90;;;3.40;;
76667;SDS011;65585;51.166;16.922;2024-02-23T00:10:15;5.30;;;2.95;;
76667;SDS011;65585;51.166;16.922;2024-02-23T00:12:42;4.45;;;3.10;;
76667;SDS011;65585;51.166;16.922;2024-02-23T00:15:10;5.55;;;3.30;;
76667;SDS011;65585;51.166;16.922;2024-02-23T00:17:35;5.95;;;3.55;;
76667;SDS011;65585;51.166;16.922;2024-02-23T00:20:02;5.15;;;3.10;;
76667;SDS011;65585;51.166;16.922;2024-02-23T00:22:27;3.90;;;2.47;;
76667;SDS011;65585;51.166;16.922;2024-02-23T00:24:54;3.58;;;2.63;;
76667;SDS011;65585;51.166;16.922;2024-02-23T00:27:19;3.35;;;2.10;;
76667;SDS011;65585;51.166;16.922;2024-02-23T00:29:46;3.03;;;2.15;;
76667;SDS011;65585;51.166;16.922;2024-02-23T00:32:11;2.47;;;1.80;;
76667;SDS011;65585;51.166;16.922;2024-02-23T00:34:38;2.30;;;1.80;;
76667;SDS011;65585;51.166;16.922;2024-02-23T00:37:07;2.40;;;1.80;;
76667;SDS011;65585;51.166;16.922;2024-02-23T00:39:33;2.45;;;1.67;;
76667;SDS011;65585;51.166;16.922;2024-02-23T00:41:59;3.15;;;1.90;;
76667;SDS011;65585;51.166;16.922;2024-02-23T00:44:25;2.28;;;1.77;;
76667;SDS011;65585;51.166;16.922;2024-02-23T00:46:51;3.45;;;2.00;;
76667;SDS011;65585;51.166;16.922;2024-02-23T00:49:17;3.13;;;1.70;;
76667;SDS011;65585;51.166;16.922;2024-02-23T00:51:43;2.60;;;1.88;;
76667;SDS011;65585;51.166;16.922;2024-02-23T00:54:09;2.47;;;1.77;;
76667;SDS011;65585;51.166;16.922;2024-02-23T00:56:34;2.90;;;1.80;;
76667;SDS011;65585;51.166;16.922;2024-02-23T00:59:01;2.38;;;1.60;;
76667;SDS011;65585;51.166;16.922;2024-02-23T01:01:30;2.17;;;1.70;;
76667;SDS011;65585;51.166;16.922;2024-02-23T01:03:57;2.50;;;1.70;;
76667;SDS011;65585;51.166;16.922;2024-02-23T01:06:23;2.33;;;1.55;;
76667;SDS011;65585;51.166;16.922;2024-02-23T01:08:50;1.52;;;1.30;;
76667;SDS011;65585;51.166;16.922;2024-02-23T01:11:17;2.28;;;1.63;;
76667;SDS011;65585;51.166;16.922;2024-02-23T01:13:43;2.33;;;1.50;;
76667;SDS011;65585;51.166;16.922;2024-02-23T01:16:09;2.20;;;1.65;;
76667;SDS011;65585;51.166;16.922;2024-02-23T01:18:35;1.90;;;1.50;;
76667;SDS011;65585;51.166;16.922;2024-02-23T01:21:01;2.38;;;1.52;;
76667;SDS011;65585;51.166;16.922;2024-02-23T01:23:27;2.90;;;1.80;;
76667;SDS011;65585;51.166;16.922;2024-02-23T01:25:53;2.42;;;1.60;;
76667;SDS011;65585;51.166;16.922;2024-02-23T01:28:19;4.13;;;1.80;;
76667;SDS011;65585;51.166;16.922;2024-02-23T01:30:45;2.20;;;1.50;;
76667;SDS011;65585;51.166;16.922;2024-02-23T01:33:11;3.42;;;2.00;;
76667;SDS011;65585;51.166;16.922;2024-02-23T01:35:37;2.78;;;1.98;;
76667;SDS011;65585;51.166;16.922;2024-02-23T01:38:03;2.30;;;1.77;;
76667;SDS011;65585;51.166;16.922;2024-02-23T01:40:29;2.70;;;1.77;;
76667;SDS011;65585;51.166;16.922;2024-02-23T01:43:02;2.35;;;1.67;;
76667;SDS011;65585;51.166;16.922;2024-02-23T01:45:31;2.75;;;1.83;;
76667;SDS011;65585;51.166;16.922;2024-02-23T01:47:57;3.25;;;2.00;;
76667;SDS011;65585;51.166;16.922;2024-02-23T01:50:25;2.53;;;1.70;;
76667;SDS011;65585;51.166;16.922;2024-02-23T01:52:51;5.70;;;1.80;;
76667;SDS011;65585;51.166;16.922;2024-02-23T01:55:20;2.58;;;1.70;;
76667;SDS011;65585;51.166;16.922;2024-02-23T01:57:47;2.55;;;1.75;;
76667;SDS011;65585;51.166;16.922;2024-02-23T02:00:16;2.10;;;1.80;;
76667;SDS011;65585;51.166;16.922;2024-02-23T02:02:44;3.47;;;1.88;;
76667;SDS011;65585;51.166;16.922;2024-02-23T02:05:10;2.67;;;1.90;;
76667;SDS011;65585;51.166;16.922;2024-02-23T02:07:37;2.00;;;1.58;;
76667;SDS011;65585;51.166;16.922;2024-02-23T02:10:04;2.22;;;1.65;;
76667;SDS011;65585;51.166;16.922;2024-02-23T02:12:32;3.05;;;1.80;;
76667;SDS011;65585;51.166;16.922;2024-02-23T02:14:58;2.60;;;1.80;;
76667;SDS011;65585;51.166;16.922;2024-02-23T02:17:27;3.15;;;1.90;;
76667;SDS011;65585;51.166;16.922;2024-02-23T02:19:53;2.88;;;2.03;;
76667;SDS011;65585;51.166;16.922;2024-02-23T02:22:19;3.38;;;1.90;;
76667;SDS011;65585;51.166;16.922;2024-02-23T02:24:45;3.08;;;2.00;;
76667;SDS011;65585;51.166;16.922;2024-02-23T02:27:14;2.55;;;2.00;;
76667;SDS011;65585;51.166;16.922;2024-02-23T02:29:40;3.05;;;2.00;;
76667;SDS011;65585;51.166;16.922;2024-02-23T02:32:06;2.65;;;1.92;;
76667;SDS011;65585;51.166;16.922;2024-02-23T02:34:32;2.67;;;1.80;;
76667;SDS011;65585;51.166;16.922;2024-02-23T02:37:00;3.55;;;2.00;;
76667;SDS011;65585;51.166;16.922;2024-02-23T02:39:27;4.20;;;2.30;;
76667;SDS011;65585;51.166;16.922;2024-02-23T02:41:53;3.85;;;2.15;;
76667;SDS011;65585;51.166;16.922;2024-02-23T02:44:19;2.58;;;2.00;;
76667;SDS011;65585;51.166;16.922;2024-02-23T02:46:45;3.47;;;2.10;;
76667;SDS011;65585;51.166;16.922;2024-02-23T02:49:11;3.75;;;2.55;;
76667;SDS011;65585;51.166;16.922;2024-02-23T02:51:37;3.20;;;2.20;;
76667;SDS011;65585;51.166;16.922;2024-02-23T02:54:04;3.15;;;2.30;;
76667;SDS011;65585;51.166;16.922;2024-02-23T02:56:30;3.63;;;2.60;;
76667;SDS011;65585;51.166;16.922;2024-02-23T02:58:56;2.70;;;2.38;;
76667;SDS011;65585;51.166;16.922;2024-02-23T03:01:22;3.67;;;2.75;;
76667;SDS011;65585;51.166;16.922;2024-02-23T03:03:48;2.85;;;2.38;;
76667;SDS011;65585;51.166;16.922;2024-02-23T03:06:14;3.45;;;2.47;;
76667;SDS011;65585;51.166;16.922;2024-02-23T03:08:43;5.47;;;3.45;;
76667;SDS011;65585;51.166;16.922;2024-02-23T03:11:09;7.72;;;3.97;;
76667;SDS011;65585;51.166;16.922;2024-02-23T03:13:35;6.20;;;3.88;;
76667;SDS011;65585;51.166;16.922;2024-02-23T03:16:01;7.00;;;4.13;;
76667;SDS011;65585;51.166;16.922;2024-02-23T03:18:27;5.57;;;3.40;;
76667;SDS011;65585;51.166;16.922;2024-02-23T03:20:53;4.40;;;3.45;;
76667;SDS011;65585;51.166;16.922;2024-02-23T03:23:20;4.95;;;3.25;;
76667;SDS011;65585;51.166;16.922;2024-02-23T03:25:46;5.25;;;3.63;;
76667;SDS011;65585;51.166;16.922;2024-02-23T03:28:12;5.03;;;3.72;;
76667;SDS011;65585;51.166;16.922;2024-02-23T03:30:38;5.28;;;3.70;;
76667;SDS011;65585;51.166;16.922;2024-02-23T03:33:04;5.47;;;3.50;;
76667;SDS011;65585;51.166;16.922;2024-02-23T03:35:33;5.25;;;3.67;;
76667;SDS011;65585;51.166;16.922;2024-02-23T03:37:59;6.38;;;3.50;;
76667;SDS011;65585;51.166;16.922;2024-02-23T03:40:25;4.95;;;3.65;;
76667;SDS011;65585;51.166;16.922;2024-02-23T03:42:51;5.90;;;3.90;;
76667;SDS011;65585;51.166;16.922;2024-02-23T03:45:17;6.30;;;4.15;;
76667;SDS011;65585;51.166;16.922;2024-02-23T03:47:43;4.88;;;3.63;;
76667;SDS011;65585;51.166;16.922;2024-02-23T03:50:09;6.80;;;4.60;;
76667;SDS011;65585;51.166;16.922;2024-02-23T03:52:35;5.80;;;3.88;;
76667;SDS011;65585;51.166;16.922;2024-02-23T03:55:01;6.57;;;4.75;;
76667;SDS011;65585;51.166;16.922;2024-02-23T03:57:29;6.72;;;4.70;;
76667;SDS011;65585;51.166;16.922;2024-02-23T03:59:55;6.40;;;4.05;;
76667;SDS011;65585;51.166;16.922;2024-02-23T04:02:21;6.32;;;4.28;;
76667;SDS011;65585;51.166;16.922;2024-02-23T04:04:47;5.55;;;3.97;;
76667;SDS011;65585;51.166;16.922;2024-02-23T04:07:13;6.00;;;4.10;;
76667;SDS011;65585;51.166;16.922;2024-02-23T04:09:40;4.78;;;3.70;;
76667;SDS011;65585;51.166;16.922;2024-02-23T04:12:06;6.50;;;3.50;;
76667;SDS011;65585;51.166;16.922;2024-02-23T04:14:35;4.22;;;3.35;;
76667;SDS011;65585;51.166;16.922;2024-02-23T04:17:04;5.13;;;3.20;;
76667;SDS011;65585;51.166;16.922;2024-02-23T04:19:30;4.05;;;3.13;;
76667;SDS011;65585;51.166;16.922;2024-02-23T04:21:56;3.53;;;2.80;;
76667;SDS011;65585;51.166;16.922;2024-02-23T04:24:22;3.80;;;2.92;;
76667;SDS011;65585;51.166;16.922;2024-02-23T04:26:48;3.60;;;2.60;;
76667;SDS011;65585;51.166;16.922;2024-02-23T04:29:15;5.53;;;2.80;;
76667;SDS011;65585;51.166;16.922;2024-02-23T04:31:40;3.80;;;2.45;;
76667;SDS011;65585;51.166;16.922;2024-02-23T04:34:06;3.30;;;2.42;;
76667;SDS011;65585;51.166;16.922;2024-02-23T04:36:32;4.75;;;2.80;;
76667;SDS011;65585;51.166;16.922;2024-02-23T04:38:58;3.42;;;2.25;;
76667;SDS011;65585;51.166;16.922;2024-02-23T04:41:24;3.60;;;2.40;;
76667;SDS011;65585;51.166;16.922;2024-02-23T04:43:50;5.28;;;2.90;;
76667;SDS011;65585;51.166;16.922;2024-02-23T04:46:16;4.13;;;2.92;;
76667;SDS011;65585;51.166;16.922;2024-02-23T04:48:42;3.53;;;2.60;;
76667;SDS011;65585;51.166;16.922;2024-02-23T04:51:08;3.47;;;2.80;;
76667;SDS011;65585;51.166;16.922;2024-02-23T04:53:37;4.15;;;2.60;;
76667;SDS011;65585;51.166;16.922;2024-02-23T04:56:04;3.67;;;2.80;;
76667;SDS011;65585;51.166;16.922;2024-02-23T04:58:30;5.13;;;3.20;;
76667;SDS011;65585;51.166;16.922;2024-02-23T05:00:56;4.55;;;3.13;;
76667;SDS011;65585;51.166;16.922;2024-02-23T05:03:23;4.40;;;3.22;;
76667;SDS011;65585;51.166;16.922;2024-02-23T05:05:48;3.90;;;2.85;;
76667;SDS011;65585;51.166;16.922;2024-02-23T05:08:19;4.80;;;3.30;;
76667;SDS011;65585;51.166;16.922;2024-02-23T05:10:46;4.30;;;3.40;;
76667;SDS011;65585;51.166;16.922;2024-02-23T05:13:13;3.60;;;2.85;;
76667;SDS011;65585;51.166;16.922;2024-02-23T05:15:39;4.32;;;2.97;;
76667;SDS011;65585;51.166;16.922;2024-02-23T05:18:05;4.65;;;2.70;;
76667;SDS011;65585;51.166;16.922;2024-02-23T05:20:31;5.45;;;3.28;;
76667;SDS011;65585;51.166;16.922;2024-02-23T05:22:57;4.13;;;3.22;;
76667;SDS011;65585;51.166;16.922;2024-02-23T05:25:23;3.80;;;2.67;;
76667;SDS011;65585;51.166;16.922;2024-02-23T05:27:51;4.10;;;3.10;;
76667;SDS011;65585;51.166;16.922;2024-02-23T05:30:17;4.55;;;2.85;;
76667;SDS011;65585;51.166;16.922;2024-02-23T05:32:43;4.22;;;3.10;;
76667;SDS011;65585;51.166;16.922;2024-02-23T05:35:09;5.18;;;3.08;;
76667;SDS011;65585;51.166;16.922;2024-02-23T05:37:36;4.18;;;2.92;;
76667;SDS011;65585;51.166;16.922;2024-02-23T05:40:03;3.85;;;2.70;;
76667;SDS011;65585;51.166;16.922;2024-02-23T05:42:32;4.32;;;2.97;;
76667;SDS011;65585;51.166;16.922;2024-02-23T05:44:58;3.90;;;2.83;;
76667;SDS011;65585;51.166;16.922;2024-02-23T05:47:24;4.40;;;2.97;;
76667;SDS011;65585;51.166;16.922;2024-02-23T05:49:50;4.70;;;3.40;;
76667;SDS011;65585;51.166;16.922;2024-02-23T05:52:16;4.00;;;2.58;;
76667;SDS011;65585;51.166;16.922;2024-02-23T05:54:42;4.03;;;3.10;;
76667;SDS011;65585;51.166;16.922;2024-02-23T05:57:09;3.53;;;2.70;;
76667;SDS011;65585;51.166;16.922;2024-02-23T05:59:34;5.72;;;3.20;;
76667;SDS011;65585;51.166;16.922;2024-02-23T06:02:01;3.60;;;2.50;;
76667;SDS011;65585;51.166;16.922;2024-02-23T06:04:26;3.90;;;3.13;;
76667;SDS011;65585;51.166;16.922;2024-02-23T06:06:53;3.88;;;3.13;;
76667;SDS011;65585;51.166;16.922;2024-02-23T06:09:19;4.90;;;3.03;;
76667;SDS011;65585;51.166;16.922;2024-02-23T06:11:45;4.50;;;3.08;;
76667;SDS011;65585;51.166;16.922;2024-02-23T06:14:11;4.43;;;3.03;;
76667;SDS011;65585;51.166;16.922;2024-02-23T06:16:37;4.57;;;3.20;;
76667;SDS011;65585;51.166;16.922;2024-02-23T06:19:03;5.25;;;3.53;;
76667;SDS011;65585;51.166;16.922;2024-02-23T06:21:29;4.60;;;3.55;;
76667;SDS011;65585;51.166;16.922;2024-02-23T06:23:55;4.80;;;3.05;;
76667;SDS011;65585;51.166;16.922;2024-02-23T06:26:21;4.88;;;3.00;;
76667;SDS011;65585;51.166;16.922;2024-02-23T06:28:47;3.80;;;2.85;;
76667;SDS011;65585;51.166;16.922;2024-02-23T06:31:14;4.22;;;2.92;;
76667;SDS011;65585;51.166;16.922;2024-02-23T06:33:40;4.88;;;3.38;;
76667;SDS011;65585;51.166;16.922;2024-02-23T06:36:06;3.97;;;2.88;;
76667;SDS011;65585;51.166;16.922;2024-02-23T06:38:34;4.78;;;3.47;;
76667;SDS011;65585;51.166;16.922;2024-02-23T06:41:00;4.32;;;3.03;;
76667;SDS011;65585;51.166;16.922;2024-02-23T06:43:26;5.07;;;3.15;;
76667;SDS011;65585;51.166;16.922;2024-02-23T06:45:52;3.92;;;2.70;;
76667;SDS011;65585;51.166;16.922;2024-02-23T06:48:18;6.03;;;3.40;;
76667;SDS011;65585;51.166;16.922;2024-02-23T06:50:44;3.72;;;2.50;;
76667;SDS011;65585;51.166;16.922;2024-02-23T06:53:10;4.40;;;2.90;;
76667;SDS011;65585;51.166;16.922;2024-02-23T06:55:36;4.25;;;2.85;;
76667;SDS011;65585;51.166;16.922;2024-02-23T06:58:02;4.47;;;2.90;;
76667;SDS011;65585;51.166;16.922;2024-02-23T07:02:56;5.20;;;3.20;;
76667;SDS011;65585;51.166;16.922;2024-02-23T07:05:24;4.90;;;3.22;;
76667;SDS011;65585;51.166;16.922;2024-02-23T07:07:58;5.72;;;3.17;;
76667;SDS011;65585;51.166;16.922;2024-02-23T07:27:00;5.70;;;3.55;;
76667;SDS011;65585;51.166;16.922;2024-02-23T07:30:13;4.85;;;3.65;;
76667;SDS011;65585;51.166;16.922;2024-02-23T07:36:32;4.70;;;2.95;;
76667;SDS011;65585;51.166;16.922;2024-02-23T07:39:39;5.50;;;2.85;;
76667;SDS011;65585;51.166;16.922;2024-02-23T07:42:05;4.65;;;2.72;;
76667;SDS011;65585;51.166;16.922;2024-02-23T07:44:31;3.72;;;2.53;;
76667;SDS011;65585;51.166;16.922;2024-02-23T07:46:58;3.80;;;2.30;;
76667;SDS011;65585;51.166;16.922;2024-02-23T07:49:24;5.53;;;2.67;;
76667;SDS011;65585;51.166;16.922;2024-02-23T07:51:51;2.95;;;2.38;;
76667;SDS011;65585;51.166;16.922;2024-02-23T07:54:17;3.72;;;2.40;;
76667;SDS011;65585;51.166;16.922;2024-02-23T07:56:43;4.32;;;2.38;;
76667;SDS011;65585;51.166;16.922;2024-02-23T07:59:09;4.03;;;2.28;;
76667;SDS011;65585;51.166;16.922;2024-02-23T08:01:35;3.30;;;2.50;;
76667;SDS011;65585;51.166;16.922;2024-02-23T08:04:01;4.70;;;2.75;;
76667;SDS011;65585;51.166;16.922;2024-02-23T08:06:28;3.15;;;2.35;;
76667;SDS011;65585;51.166;16.922;2024-02-23T08:08:55;2.65;;;2.25;;
76667;SDS011;65585;51.166;16.922;2024-02-23T08:11:21;3.47;;;2.03;;
76667;SDS011;65585;51.166;16.922;2024-02-23T08:13:47;5.45;;;2.45;;
76667;SDS011;65585;51.166;16.922;2024-02-23T08:16:13;3.67;;;2.45;;
76667;SDS011;65585;51.166;16.922;2024-02-23T08:18:41;4.65;;;3.30;;
76667;SDS011;65585;51.166;16.922;2024-02-23T08:21:07;3.97;;;2.80;;
76667;SDS011;65585;51.166;16.922;2024-02-23T08:23:33;3.75;;;2.42;;
76667;SDS011;65585;51.166;16.922;2024-02-23T08:25:59;3.80;;;2.28;;
76667;SDS011;65585;51.166;16.922;2024-02-23T08:28:26;2.20;;;1.50;;
76667;SDS011;65585;51.166;16.922;2024-02-23T08:30:52;2.38;;;1.83;;
76667;SDS011;65585;51.166;16.922;2024-02-23T08:33:18;4.10;;;1.90;;
76667;SDS011;65585;51.166;16.922;2024-02-23T08:35:44;3.17;;;1.83;;
76667;SDS011;65585;51.166;16.922;2024-02-23T08:38:10;2.03;;;1.38;;
76667;SDS011;65585;51.166;16.922;2024-02-23T08:40:36;2.72;;;1.45;;
76667;SDS011;65585;51.166;16.922;2024-02-23T08:43:02;4.18;;;1.50;;
76667;SDS011;65585;51.166;16.922;2024-02-23T08:45:29;2.60;;;1.27;;
76667;SDS011;65585;51.166;16.922;2024-02-23T08:47:55;1.73;;;1.20;;
76667;SDS011;65585;51.166;16.922;2024-02-23T08:50:21;1.30;;;1.00;;
76667;SDS011;65585;51.166;16.922;2024-02-23T08:52:46;2.03;;;1.27;;
76667;SDS011;65585;51.166;16.922;2024-02-23T08:55:13;1.75;;;0.88;;
76667;SDS011;65585;51.166;16.922;2024-02-23T08:57:38;2.08;;;0.98;;
76667;SDS011;65585;51.166;16.922;2024-02-23T09:00:05;1.38;;;0.93;;
76667;SDS011;65585;51.166;16.922;2024-02-23T09:02:31;2.22;;;1.38;;
76667;SDS011;65585;51.166;16.922;2024-02-23T09:05:01;3.33;;;1.20;;
76667;SDS011;65585;51.166;16.922;2024-02-23T09:07:27;3.55;;;1.30;;
76667;SDS011;65585;51.166;16.922;2024-02-23T09:09:53;1.95;;;1.20;;
76667;SDS011;65585;51.166;16.922;2024-02-23T09:12:19;3.15;;;1.50;;
76667;SDS011;65585;51.166;16.922;2024-02-23T09:14:45;2.33;;;1.17;;
76667;SDS011;65585;51.166;16.922;2024-02-23T09:17:11;1.13;;;1.00;;
76667;SDS011;65585;51.166;16.922;2024-02-23T09:19:38;1.70;;;1.00;;
76667;SDS011;65585;51.166;16.922;2024-02-23T09:22:04;1.20;;;1.10;;
76667;SDS011;65585;51.166;16.922;2024-02-23T09:24:31;2.10;;;1.30;;
76667;SDS011;65585;51.166;16.922;2024-02-23T09:26:57;2.75;;;1.25;;
76667;SDS011;65585;51.166;16.922;2024-02-23T09:29:23;2.05;;;1.13;;
76667;SDS011;65585;51.166;16.922;2024-02-23T09:31:49;14.77;;;1.65;;
76667;SDS011;65585;51.166;16.922;2024-02-23T09:34:15;2.00;;;1.40;;
76667;SDS011;65585;51.166;16.922;2024-02-23T09:36:41;3.90;;;1.17;;
76667;SDS011;65585;51.166;16.922;2024-02-23T09:39:07;1.88;;;1.35;;
76667;SDS011;65585;51.166;16.922;2024-02-23T09:41:33;2.28;;;1.50;;
76667;SDS011;65585;51.166;16.922;2024-02-23T09:44:01;4.05;;;1.30;;
76667;SDS011;65585;51.166;16.922;2024-02-23T09:46:27;3.22;;;1.38;;
76667;SDS011;65585;51.166;16.922;2024-02-23T09:48:53;2.80;;;1.30;;
76667;SDS011;65585;51.166;16.922;2024-02-23T09:51:20;1.30;;;1.20;;
76667;SDS011;65585;51.166;16.922;2024-02-23T09:53:46;3.28;;;1.50;;
76667;SDS011;65585;51.166;16.922;2024-02-23T09:56:15;3.05;;;1.40;;
76667;SDS011;65585;51.166;16.922;2024-02-23T09:58:43;1.90;;;1.40;;
76667;SDS011;65585;51.166;16.922;2024-02-23T10:01:09;1.80;;;1.13;;
76667;SDS011;65585;51.166;16.922;2024-02-23T10:03:37;2.97;;;1.08;;
76667;SDS011;65585;51.166;16.922;2024-02-23T10:06:04;1.85;;;0.98;;
76667;SDS011;65585;51.166;16.922;2024-02-23T10:08:31;1.25;;;1.00;;
76667;SDS011;65585;51.166;16.922;2024-02-23T10:10:56;2.90;;;1.25;;
76667;SDS011;65585;51.166;16.922;2024-02-23T10:13:23;1.35;;;0.98;;
76667;SDS011;65585;51.166;16.922;2024-02-23T10:15:49;1.85;;;1.15;;
76667;SDS011;65585;51.166;16.922;2024-02-23T10:18:16;1.70;;;1.15;;
76667;SDS011;65585;51.166;16.922;2024-02-23T10:20:42;3.92;;;1.35;;
76667;SDS011;65585;51.166;16.922;2024-02-23T10:23:09;1.75;;;1.02;;
76667;SDS011;65585;51.166;16.922;2024-02-23T10:25:35;2.08;;;1.40;;
76667;SDS011;65585;51.166;16.922;2024-02-23T10:28:03;0.80;;;0.80;;
76667;SDS011;65585;51.166;16.922;2024-02-23T10:30:29;2.88;;;1.20;;
76667;SDS011;65585;51.166;16.922;2024-02-23T10:32:56;1.88;;;1.10;;
76667;SDS011;65585;51.166;16.922;2024-02-23T10:35:23;0.95;;;0.73;;
76667;SDS011;65585;51.166;16.922;2024-02-23T10:37:50;1.60;;;1.00;;
76667;SDS011;65585;51.166;16.922;2024-02-23T10:40:18;1.88;;;1.17;;
76667;SDS011;65585;51.166;16.922;2024-02-23T10:42:46;2.22;;;1.20;;
76667;SDS011;65585;51.166;16.922;2024-02-23T10:45:15;1.20;;;1.02;;
76667;SDS011;65585;51.166;16.922;2024-02-23T10:47:42;2.65;;;1.20;;
76667;SDS011;65585;51.166;16.922;2024-02-23T10:50:09;3.35;;;1.40;;
76667;SDS011;65585;51.166;16.922;2024-02-23T10:52:39;2.65;;;1.50;;
76667;SDS011;65585;51.166;16.922;2024-02-23T10:55:05;2.33;;;1.15;;
76667;SDS011;65585;51.166;16.922;2024-02-23T10:57:32;2.13;;;1.13;;
76667;SDS011;65585;51.166;16.922;2024-02-23T10:59:58;1.27;;;0.90;;
76667;SDS011;65585;51.166;16.922;2024-02-23T11:02:24;2.20;;;1.00;;
76667;SDS011;65585;51.166;16.922;2024-02-23T11:04:53;2.20;;;1.50;;
76667;SDS011;65585;51.166;16.922;2024-02-23T11:07:20;1.33;;;1.20;;
76667;SDS011;65585;51.166;16.922;2024-02-23T11:10:22;4.50;;;1.80;;
76667;SDS011;65585;51.166;16.922;2024-02-23T11:12:40;3.92;;;1.33;;
76667;SDS011;65585;51.166;16.922;2024-02-23T11:15:06;2.80;;;1.48;;
76667;SDS011;65585;51.166;16.922;2024-02-23T11:17:34;2.45;;;1.15;;
76667;SDS011;65585;51.166;16.922;2024-02-23T11:20:03;4.22;;;1.48;;
76667;SDS011;65585;51.166;16.922;2024-02-23T11:25:00;4.25;;;1.45;;
76667;SDS011;65585;51.166;16.922;2024-02-23T11:27:33;2.17;;;1.40;;
76667;SDS011;65585;51.166;16.922;2024-02-23T11:29:59;3.50;;;1.42;;
76667;SDS011;65585;51.166;16.922;2024-02-23T11:32:35;3.08;;;1.40;;
76667;SDS011;65585;51.166;16.922;2024-02-23T11:35:13;1.60;;;1.30;;
76667;SDS011;65585;51.166;16.922;2024-02-23T11:37:44;2.55;;;1.33;;
76667;SDS011;65585;51.166;16.922;2024-02-23T11:40:11;2.75;;;1.23;;
76667;SDS011;65585;51.166;16.922;2024-02-23T11:42:40;2.22;;;1.25;;
76667;SDS011;65585;51.166;16.922;2024-02-23T11:45:07;4.18;;;1.55;;
76667;SDS011;65585;51.166;16.922;2024-02-23T11:47:34;1.77;;;1.20;;
76667;SDS011;65585;51.166;16.922;2024-02-23T11:49:59;3.47;;;1.42;;
76667;SDS011;65585;51.166;16.922;2024-02-23T11:52:26;1.63;;;1.05;;
76667;SDS011;65585;51.166;16.922;2024-02-23T11:54:52;2.90;;;1.55;;
76667;SDS011;65585;51.166;16.922;2024-02-23T11:57:18;2.60;;;1.30;;
76667;SDS011;65585;51.166;16.922;2024-02-23T11:59:44;2.50;;;1.60;;
76667;SDS011;65585;51.166;16.922;2024-02-23T12:02:10;3.10;;;1.60;;
76667;SDS011;65585;51.166;16.922;2024-02-23T12:04:38;2.60;;;1.75;;
76667;SDS011;65585;51.166;16.922;2024-02-23T12:07:04;3.38;;;1.98;;
76667;SDS011;65585;51.166;16.922;2024-02-23T12:09:30;2.92;;;1.52;;
76667;SDS011;65585;51.166;16.922;2024-02-23T12:11:56;2.95;;;1.75;;
76667;SDS011;65585;51.166;16.922;2024-02-23T12:14:22;2.08;;;1.38;;
76667;SDS011;65585;51.166;16.922;2024-02-23T12:16:48;3.03;;;1.67;;
76667;SDS011;65585;51.166;16.922;2024-02-23T12:19:14;2.22;;;1.45;;
76667;SDS011;65585;51.166;16.922;2024-02-23T12:21:40;3.30;;;1.98;;
76667;SDS011;65585;51.166;16.922;2024-02-23T12:24:10;1.73;;;1.30;;
76667;SDS011;65585;51.166;16.922;2024-02-23T12:26:38;4.90;;;1.88;;
76667;SDS011;65585;51.166;16.922;2024-02-23T12:29:04;2.63;;;1.33;;
76667;SDS011;65585;51.166;16.922;2024-02-23T12:31:31;2.17;;;1.40;;
76667;SDS011;65585;51.166;16.922;2024-02-23T12:33:58;2.55;;;1.50;;
76667;SDS011;65585;51.166;16.922;2024-02-23T12:36:24;3.13;;;1.50;;
76667;SDS011;65585;51.166;16.922;2024-02-23T12:38:50;3.00;;;1.50;;
76667;SDS011;65585;51.166;16.922;2024-02-23T12:41:16;3.28;;;1.73;;
76667;SDS011;65585;51.166;16.922;2024-02-23T12:43:42;3.92;;;1.50;;
76667;SDS011;65585;51.166;16.922;2024-02-23T12:46:09;2.92;;;1.67;;
76667;SDS011;65585;51.166;16.922;2024-02-23T12:48:38;2.55;;;1.40;;
76667;SDS011;65585;51.166;16.922;2024-02-23T12:51:04;1.98;;;1.50;;
76667;SDS011;65585;51.166;16.922;2024-02-23T12:53:34;3.50;;;1.67;;
76667;SDS011;65585;51.166;16.922;2024-02-23T12:56:11;5.05;;;1.98;;
76667;SDS011;65585;51.166;16.922;2024-02-23T12:58:42;3.03;;;1.67;;
76667;SDS011;65585;51.166;16.922;2024-02-23T13:01:09;4.47;;;3.00;;
76667;SDS011;65585;51.166;16.922;2024-02-23T13:03:36;5.18;;;2.08;;
76667;SDS011;65585;51.166;16.922;2024-02-23T13:06:04;3.42;;;1.90;;
76667;SDS011;65585;51.166;16.922;2024-02-23T13:08:30;2.10;;;1.60;;
76667;SDS011;65585;51.166;16.922;2024-02-23T13:10:57;2.50;;;1.65;;
76667;SDS011;65585;51.166;16.922;2024-02-23T13:13:23;3.83;;;1.95;;
76667;SDS011;65585;51.166;16.922;2024-02-23T13:15:51;5.47;;;2.58;;
76667;SDS011;65585;51.166;16.922;2024-02-23T13:18:17;4.18;;;2.33;;
76667;SDS011;65585;51.166;16.922;2024-02-23T13:20:45;4.07;;;2.00;;
76667;SDS011;65585;51.166;16.922;2024-02-23T13:23:11;5.82;;;2.53;;
76667;SDS011;65585;51.166;16.922;2024-02-23T13:25:38;3.95;;;2.38;;
76667;SDS011;65585;51.166;16.922;2024-02-23T13:28:05;4.90;;;2.00;;
76667;SDS011;65585;51.166;16.922;2024-02-23T13:30:32;5.65;;;2.40;;
76667;SDS011;65585;51.166;16.922;2024-02-23T13:33:00;4.00;;;2.20;;
76667;SDS011;65585;51.166;16.922;2024-02-23T13:35:27;2.83;;;1.92;;
76667;SDS011;65585;51.166;16.922;2024-02-23T13:37:53;3.20;;;1.80;;
76667;SDS011;65585;51.166;16.922;2024-02-23T13:40:19;4.65;;;2.35;;
76667;SDS011;65585;51.166;16.922;2024-02-23T13:42:46;4.28;;;2.72;;
76667;SDS011;65585;51.166;16.922;2024-02-23T13:45:15;6.38;;;2.38;;
76667;SDS011;65585;51.166;16.922;2024-02-23T13:47:42;5.15;;;2.30;;
76667;SDS011;65585;51.166;16.922;2024-02-23T13:50:10;7.40;;;3.40;;
76667;SDS011;65585;51.166;16.922;2024-02-23T13:52:36;7.28;;;2.35;;
76667;SDS011;65585;51.166;16.922;2024-02-23T13:55:04;4.25;;;2.10;;
76667;SDS011;65585;51.166;16.922;2024-02-23T13:57:30;4.38;;;2.35;;
76667;SDS011;65585;51.166;16.922;2024-02-23T13:59:56;4.28;;;2.50;;
76667;SDS011;65585;51.166;16.922;2024-02-23T14:02:26;5.30;;;2.78;;
76667;SDS011;65585;51.166;16.922;2024-02-23T14:04:59;4.53;;;2.38;;
76667;SDS011;65585;51.166;16.922;2024-02-23T14:07:27;3.47;;;2.20;;
76667;SDS011;65585;51.166;16.922;2024-02-23T14:09:54;5.13;;;2.55;;
76667;SDS011;65585;51.166;16.922;2024-02-23T14:12:19;4.85;;;2.53;;
76667;SDS011;65585;51.166;16.922;2024-02-23T14:14:46;2.88;;;2.17;;
76667;SDS011;65585;51.166;16.922;2024-02-23T14:17:12;3.45;;;2.10;;
76667;SDS011;65585;51.166;16.922;2024-02-23T14:19:38;6.60;;;2.15;;
76667;SDS011;65585;51.166;16.922;2024-02-23T14:22:05;5.15;;;2.17;;
76667;SDS011;65585;51.166;16.922;2024-02-23T14:24:32;2.95;;;2.08;;
76667;SDS011;65585;51.166;16.922;2024-02-23T14:26:58;4.30;;;2.00;;
76667;SDS011;65585;51.166;16.922;2024-02-23T14:29:25;3.47;;;2.33;;
76667;SDS011;65585;51.166;16.922;2024-02-23T14:31:51;2.78;;;1.75;;
76667;SDS011;65585;51.166;16.922;2024-02-23T14:34:18;3.45;;;1.92;;
76667;SDS011;65585;51.166;16.922;2024-02-23T14:36:45;5.13;;;2.88;;
76667;SDS011;65585;51.166;16.922;2024-02-23T14:39:11;5.07;;;2.30;;
76667;SDS011;65585;51.166;16.922;2024-02-23T14:41:38;4.70;;;2.25;;
76667;SDS011;65585;51.166;16.922;2024-02-23T14:44:04;4.75;;;2.80;;
76667;SDS011;65585;51.166;16.922;2024-02-23T14:46:31;4.88;;;2.60;;
76667;SDS011;65585;51.166;16.922;2024-02-23T14:48:57;3.53;;;2.60;;
76667;SDS011;65585;51.166;16.922;2024-02-23T14:51:24;4.30;;;2.80;;
76667;SDS011;65585;51.166;16.922;2024-02-23T14:53:49;3.88;;;2.50;;
76667;SDS011;65585;51.166;16.922;2024-02-23T14:56:16;6.95;;;3.20;;